Time;durP1;ratioP1;P1;durP2;ratioP2;P2;SDS_P1;SDS_P2;PMS_P1;PMS_P2;Temp;Humidity;BMP_temperature;BMP_pressure;BME280_temperature;BME280_humidity;BME280_pressure;Samples;Min_cycle;Max_cycle;Signal;HPM_P1;HPM_P2
2022/09/23 00:00:45;;;;;;;5.82;3.53;;;;;;;;;;5075550;28;20052;-88
2022/09/23 00:03:12;;;;;;;5.15;3.08;;;;;;;;;;5057875;28;20119;-88
2022/09/23 00:05:40;;;;;;;3.22;2.90;;;;;;;;;;5075281;28;20048;-88
2022/09/23 00:08:07;;;;;;;3.53;2.95;;;;;;;;;;5057802;28;20052;-88
2022/09/23 00:10:36;;;;;;;4.93;3.60;;;;;;;;;;5057976;28;20477;-88
2022/09/23 00:13:04;;;;;;;6.65;3.75;;;;;;;;;;5057602;28;20049;-89
2022/09/23 00:15:32;;;;;;;5.32;3.50;;;;;;;;;;5057872;28;20049;-89
2022/09/23 00:17:59;;;;;;;4.78;3.70;;;;;;;;;;5057696;28;20053;-89
2022/09/23 00:20:27;;;;;;;4.97;3.38;;;;;;;;;;5057736;28;20488;-89
2022/09/23 00:22:54;;;;;;;4.20;3.53;;;;;;;;;;5057367;28;20068;-88
2022/09/23 00:25:21;;;;;;;3.75;3.40;;;;;;;;;;5057686;28;20052;-89
2022/09/23 00:27:48;;;;;;;3.15;2.92;;;;;;;;;;5058026;28;20072;-89
2022/09/23 00:30:17;;;;;;;6.40;3.42;;;;;;;;;;5057681;28;20044;-89
2022/09/23 00:32:44;;;;;;;4.55;3.65;;;;;;;;;;5074968;28;20048;-89
2022/09/23 00:35:11;;;;;;;4.00;3.70;;;;;;;;;;5057726;28;20048;-89
2022/09/23 00:37:38;;;;;;;4.82;3.50;;;;;;;;;;5056531;28;20049;-89
2022/09/23 00:40:07;;;;;;;3.78;3.22;;;;;;;;;;5074842;28;20041;-89
2022/09/23 00:42:34;;;;;;;6.57;3.30;;;;;;;;;;5057272;28;20098;-89
2022/09/23 00:45:01;;;;;;;3.50;3.17;;;;;;;;;;5074755;28;20548;-89
2022/09/23 00:47:39;;;;;;;4.93;3.40;;;;;;;;;;5056925;28;20056;-89
2022/09/23 00:50:07;;;;;;;4.20;3.08;;;;;;;;;;5074800;28;20059;-89
2022/09/23 00:52:35;;;;;;;2.88;2.67;;;;;;;;;;5057143;28;20123;-89
2022/09/23 00:55:06;;;;;;;5.53;3.65;;;;;;;;;;5074390;28;20052;-89
2022/09/23 00:57:35;;;;;;;3.72;3.35;;;;;;;;;;5056535;28;20060;-89
2022/09/23 01:00:04;;;;;;;3.58;3.28;;;;;;;;;;5074289;28;20048;-89
2022/09/23 01:02:32;;;;;;;5.82;3.75;;;;;;;;;;5074603;28;20045;-89
2022/09/23 01:05:01;;;;;;;3.40;3.10;;;;;;;;;;5073262;28;20055;-89
2022/09/23 01:07:29;;;;;;;3.78;3.38;;;;;;;;;;5074286;28;20080;-89
2022/09/23 01:09:57;;;;;;;6.47;3.53;;;;;;;;;;5056498;28;20143;-89
2022/09/23 01:12:31;;;;;;;4.15;3.75;;;;;;;;;;5056656;28;20055;-89
2022/09/23 01:15:07;;;;;;;4.47;3.78;;;;;;;;;;5074099;28;20492;-89
2022/09/23 01:17:56;;;;;;;9.05;3.88;;;;;;;;;;5073246;28;20075;-89
2022/09/23 01:20:46;;;;;;;3.60;3.30;;;;;;;;;;5056404;28;20052;-89
2022/09/23 01:23:14;;;;;;;7.63;3.53;;;;;;;;;;5028443;28;20044;-89
2022/09/23 01:26:04;;;;;;;5.78;3.60;;;;;;;;;;5056390;28;20059;-89
2022/09/23 01:28:48;;;;;;;5.03;4.45;;;;;;;;;;5056536;28;20052;-89
2022/09/23 01:31:22;;;;;;;6.00;3.83;;;;;;;;;;5056393;28;20048;-90
2022/09/23 01:33:53;;;;;;;5.97;4.13;;;;;;;;;;5056432;28;20459;-89
2022/09/23 01:36:30;;;;;;;6.43;3.88;;;;;;;;;;5074163;28;20503;-90
2022/09/23 01:39:09;;;;;;;9.25;4.00;;;;;;;;;;5055944;28;20052;-90
2022/09/23 01:41:36;;;;;;;12.40;5.10;;;;;;;;;;5056391;28;20094;-89
2022/09/23 01:44:07;;;;;;;4.35;3.40;;;;;;;;;;5056328;28;20052;-89
2022/09/23 01:46:37;;;;;;;7.35;4.88;;;;;;;;;;5056247;28;20060;-89
2022/09/23 01:49:40;;;;;;;7.13;3.92;;;;;;;;;;5072870;28;20052;-89
2022/09/23 01:52:27;;;;;;;6.25;3.50;;;;;;;;;;4957083;28;20161;-89
2022/09/23 01:55:15;;;;;;;7.72;4.07;;;;;;;;;;5058311;28;20045;-90
2022/09/23 01:57:45;;;;;;;5.80;4.15;;;;;;;;;;5056182;28;20048;-89
2022/09/23 02:00:17;;;;;;;5.82;3.60;;;;;;;;;;5073604;28;20052;-90
2022/09/23 02:02:48;;;;;;;9.45;3.90;;;;;;;;;;5055690;28;20485;-89
2022/09/23 02:05:22;;;;;;;18.40;4.78;;;;;;;;;;5056017;28;20485;-90
2022/09/23 02:07:53;;;;;;;9.65;3.78;;;;;;;;;;5073550;28;20040;-89
2022/09/23 02:10:25;;;;;;;7.20;4.30;;;;;;;;;;5055490;28;20049;-89
2022/09/23 02:12:53;;;;;;;9.63;4.25;;;;;;;;;;5055947;28;20667;-89
2022/09/23 02:15:23;;;;;;;9.13;3.92;;;;;;;;;;5073378;28;20045;-90
2022/09/23 02:17:51;;;;;;;7.90;4.30;;;;;;;;;;5073616;28;20048;-89
2022/09/23 02:20:21;;;;;;;13.00;3.85;;;;;;;;;;5055767;28;20067;-89
2022/09/23 02:22:56;;;;;;;10.25;4.47;;;;;;;;;;5055867;28;20048;-90
2022/09/23 02:25:25;;;;;;;9.32;3.58;;;;;;;;;;5073410;28;20112;-89
2022/09/23 02:28:01;;;;;;;10.23;4.15;;;;;;;;;;5073484;28;20059;-90
2022/09/23 02:30:31;;;;;;;9.50;4.18;;;;;;;;;;5073469;28;20503;-90
2022/09/23 02:33:04;;;;;;;5.97;3.72;;;;;;;;;;5055881;28;20067;-90
2022/09/23 02:35:50;;;;;;;13.70;4.82;;;;;;;;;;5056153;28;20512;-89
2022/09/23 02:38:26;;;;;;;9.93;3.95;;;;;;;;;;5073328;28;20484;-90
2022/09/23 02:41:03;;;;;;;11.70;4.32;;;;;;;;;;5073250;28;20048;-90
2022/09/23 02:43:37;;;;;;;8.75;3.45;;;;;;;;;;5073309;28;20056;-89
2022/09/23 02:46:05;;;;;;;7.80;3.28;;;;;;;;;;5073112;28;20408;-89
2022/09/23 02:48:40;;;;;;;9.15;3.10;;;;;;;;;;5073242;28;20050;-90
2022/09/23 02:51:08;;;;;;;6.15;3.63;;;;;;;;;;5073178;28;20087;-90
2022/09/23 02:53:36;;;;;;;5.63;3.53;;;;;;;;;;5055306;28;20067;-90
2022/09/23 02:56:13;;;;;;;12.07;3.78;;;;;;;;;;5055338;28;20052;-90
2022/09/23 02:58:40;;;;;;;8.73;4.30;;;;;;;;;;5055671;28;20131;-90
2022/09/23 03:01:14;;;;;;;6.25;4.43;;;;;;;;;;5073993;28;20051;-90
2022/09/23 03:03:46;;;;;;;14.95;4.00;;;;;;;;;;5076539;28;20092;-90
2022/09/23 03:06:22;;;;;;;12.68;4.32;;;;;;;;;;5076523;28;20063;-90
2022/09/23 03:08:56;;;;;;;9.05;4.13;;;;;;;;;;5076329;28;20051;-91
2022/09/23 03:11:23;;;;;;;12.38;4.30;;;;;;;;;;5076207;28;20048;-90
2022/09/23 03:14:05;;;;;;;11.30;4.10;;;;;;;;;;5058909;28;20049;-90
2022/09/23 03:16:36;;;;;;;8.57;3.83;;;;;;;;;;5058949;28;20048;-90
2022/09/23 03:19:19;;;;;;;13.50;3.90;;;;;;;;;;5058795;28;20045;-91
2022/09/23 03:21:50;;;;;;;11.48;3.95;;;;;;;;;;5058605;28;20048;-91
2022/09/23 03:24:20;;;;;;;13.52;4.70;;;;;;;;;;5058612;28;20499;-91
2022/09/23 03:26:47;;;;;;;10.85;4.53;;;;;;;;;;5076388;28;20404;-91
2022/09/23 03:29:15;;;;;;;5.53;4.00;;;;;;;;;;5076404;28;20049;-91
2022/09/23 03:31:44;;;;;;;9.82;4.50;;;;;;;;;;5058357;28;20049;-91
2022/09/23 03:34:22;;;;;;;12.10;4.55;;;;;;;;;;5075965;28;20040;-91
2022/09/23 03:36:58;;;;;;;9.23;4.43;;;;;;;;;;5076141;28;20655;-91
2022/09/23 03:39:35;;;;;;;10.40;3.90;;;;;;;;;;5058696;28;20048;-91
2022/09/23 03:42:06;;;;;;;16.00;5.00;;;;;;;;;;5076103;28;20049;-91
2022/09/23 03:44:38;;;;;;;12.38;5.07;;;;;;;;;;5058719;28;20052;-91
2022/09/23 03:47:06;;;;;;;5.68;3.70;;;;;;;;;;5058734;28;20050;-91
2022/09/23 03:49:35;;;;;;;7.57;4.00;;;;;;;;;;5058275;28;20059;-90
2022/09/23 03:52:03;;;;;;;10.75;4.63;;;;;;;;;;5058074;28;20052;-91
2022/09/23 03:54:30;;;;;;;9.10;3.95;;;;;;;;;;5058193;28;20048;-91
2022/09/23 03:56:58;;;;;;;11.52;5.03;;;;;;;;;;5058034;28;20048;-91
2022/09/23 03:59:25;;;;;;;9.50;3.70;;;;;;;;;;5075622;28;20048;-91
2022/09/23 04:01:54;;;;;;;7.82;3.58;;;;;;;;;;5058163;28;20052;-91
2022/09/23 04:04:21;;;;;;;10.80;3.83;;;;;;;;;;5058244;28;20044;-91
2022/09/23 04:06:51;;;;;;;7.88;3.72;;;;;;;;;;5058200;28;20052;-91
2022/09/23 04:09:18;;;;;;;5.68;3.65;;;;;;;;;;5057890;28;20060;-91
2022/09/23 04:11:45;;;;;;;10.27;4.32;;;;;;;;;;5057472;28;20485;-91
2022/09/23 04:14:12;;;;;;;5.93;3.65;;;;;;;;;;5058016;28;20439;-91
2022/09/23 04:16:39;;;;;;;8.13;3.20;;;;;;;;;;5058072;28;20055;-91
2022/09/23 04:19:06;;;;;;;5.85;3.13;;;;;;;;;;5075385;28;20048;-91
2022/09/23 04:21:37;;;;;;;5.13;3.47;;;;;;;;;;5057943;28;20044;-91
2022/09/23 04:24:05;;;;;;;11.93;3.78;;;;;;;;;;5075070;28;20052;-91
2022/09/23 04:26:32;;;;;;;6.45;3.65;;;;;;;;;;5075317;28;20067;-91
2022/09/23 04:28:59;;;;;;;13.73;4.60;;;;;;;;;;5057617;28;20480;-91
2022/09/23 04:31:27;;;;;;;4.80;3.65;;;;;;;;;;5057817;28;20053;-91
2022/09/23 04:33:54;;;;;;;11.52;4.18;;;;;;;;;;5057629;28;20048;-92
2022/09/23 04:36:22;;;;;;;8.25;4.25;;;;;;;;;;5075015;28;20044;-91
2022/09/23 04:38:49;;;;;;;7.65;4.20;;;;;;;;;;5075271;28;20045;-91
2022/09/23 04:41:17;;;;;;;4.00;3.50;;;;;;;;;;5075271;28;20049;-91
2022/09/23 04:43:44;;;;;;;5.15;3.60;;;;;;;;;;5075002;28;20467;-91
2022/09/23 04:46:13;;;;;;;9.02;4.15;;;;;;;;;;5074787;28;20041;-91
2022/09/23 04:48:40;;;;;;;5.07;3.60;;;;;;;;;;5056910;28;20094;-91
2022/09/23 04:51:13;;;;;;;8.85;4.22;;;;;;;;;;5056870;28;20131;-92
2022/09/23 04:53:42;;;;;;;9.25;4.50;;;;;;;;;;5057109;28;20415;-92
2022/09/23 04:56:13;;;;;;;5.03;4.10;;;;;;;;;;5057019;28;20489;-92
2022/09/23 04:58:41;;;;;;;5.82;4.13;;;;;;;;;;5057454;28;20051;-92
2022/09/23 05:01:13;;;;;;;7.85;4.22;;;;;;;;;;5057003;28;20063;-92
2022/09/23 05:03:41;;;;;;;8.20;3.65;;;;;;;;;;5057300;28;20040;-92
2022/09/23 05:06:12;;;;;;;5.82;3.90;;;;;;;;;;5056967;28;20048;-91
2022/09/23 05:08:40;;;;;;;10.73;4.53;;;;;;;;;;5057200;28;20502;-92
2022/09/23 05:11:07;;;;;;;6.93;4.20;;;;;;;;;;5057047;28;20048;-92
2022/09/23 05:13:35;;;;;;;8.63;5.10;;;;;;;;;;5056572;28;20471;-91
2022/09/23 05:16:05;;;;;;;11.07;4.70;;;;;;;;;;5057081;28;20057;-91
2022/09/23 05:18:36;;;;;;;7.70;4.10;;;;;;;;;;5056598;28;20106;-92
2022/09/23 05:21:03;;;;;;;7.57;4.00;;;;;;;;;;5056570;28;20056;-92
2022/09/23 05:23:30;;;;;;;7.65;4.10;;;;;;;;;;5056156;28;20052;-91
2022/09/23 05:25:58;;;;;;;9.55;7.72;;;;;;;;;;5056599;28;20058;-92
2022/09/23 05:28:28;;;;;;;9.85;4.00;;;;;;;;;;5056595;28;20488;-91
2022/09/23 05:31:14;;;;;;;4.13;3.83;;;;;;;;;;5057053;28;20047;-92
2022/09/23 05:33:50;;;;;;;5.45;3.70;;;;;;;;;;5056840;28;20051;-92
2022/09/23 05:36:19;;;;;;;9.32;4.70;;;;;;;;;;5056250;28;20113;-92
2022/09/23 05:38:48;;;;;;;7.38;4.93;;;;;;;;;;5056097;28;20048;-92
2022/09/23 05:41:15;;;;;;;5.13;3.78;;;;;;;;;;5055877;28;20051;-93
2022/09/23 05:43:42;;;;;;;7.32;4.47;;;;;;;;;;5056426;28;20551;-92
2022/09/23 05:46:11;;;;;;;6.50;4.53;;;;;;;;;;5056246;28;20055;-92
2022/09/23 05:48:39;;;;;;;4.80;4.15;;;;;;;;;;5056299;28;20068;-92
2022/09/23 05:51:10;;;;;;;8.23;5.82;;;;;;;;;;5056206;28;20052;-92
2022/09/23 05:53:37;;;;;;;12.48;6.47;;;;;;;;;;5056142;28;20135;-94
2022/09/23 05:56:05;;;;;;;57.97;33.85;;;;;;;;;;5055856;28;20067;-93
2022/09/23 05:58:32;;;;;;;31.83;18.20;;;;;;;;;;5056343;28;20157;-92
2022/09/23 06:00:59;;;;;;;13.80;10.20;;;;;;;;;;5055810;28;20048;-93
2022/09/23 06:03:27;;;;;;;10.50;6.63;;;;;;;;;;5056018;28;20049;-93
2022/09/23 06:05:55;;;;;;;17.77;6.78;;;;;;;;;;5055568;28;20048;-92
2022/09/23 06:08:23;;;;;;;12.27;9.13;;;;;;;;;;5055873;28;20045;-93
2022/09/23 06:10:50;;;;;;;9.45;5.88;;;;;;;;;;5055850;28;20056;-92
2022/09/23 06:13:20;;;;;;;12.35;6.30;;;;;;;;;;5056715;28;20044;-91
2022/09/23 06:15:47;;;;;;;11.00;6.70;;;;;;;;;;5056105;28;20059;-93
2022/09/23 06:18:16;;;;;;;8.75;7.53;;;;;;;;;;5056196;28;20090;-91
2022/09/23 06:20:43;;;;;;;9.43;5.88;;;;;;;;;;5055687;28;20130;-92
2022/09/23 06:23:11;;;;;;;11.88;7.28;;;;;;;;;;5056231;28;20061;-92
2022/09/23 06:25:38;;;;;;;12.45;6.78;;;;;;;;;;5056083;28;20047;-92
2022/09/23 06:28:09;;;;;;;11.82;7.57;;;;;;;;;;5056258;28;20060;-91
2022/09/23 06:30:38;;;;;;;14.90;10.40;;;;;;;;;;5055937;28;20052;-92
2022/09/23 06:33:05;;;;;;;11.90;9.32;;;;;;;;;;5055669;28;20119;-92
2022/09/23 06:35:32;;;;;;;14.30;9.15;;;;;;;;;;5057711;28;20132;-92
2022/09/23 06:38:02;;;;;;;10.15;9.15;;;;;;;;;;5059904;28;20405;-89
2022/09/23 06:40:30;;;;;;;14.27;9.75;;;;;;;;;;5059795;28;20056;-90
2022/09/23 06:42:58;;;;;;;14.02;8.70;;;;;;;;;;5059953;28;20049;-91
2022/09/23 06:45:26;;;;;;;14.52;8.27;;;;;;;;;;5059532;28;20052;-90
2022/09/23 06:47:55;;;;;;;14.63;6.80;;;;;;;;;;5059248;28;20056;-90
2022/09/23 06:50:22;;;;;;;40.88;8.55;;;;;;;;;;5059564;28;20048;-90
2022/09/23 06:52:57;;;;;;;24.63;8.05;;;;;;;;;;5076878;28;20048;-90
2022/09/23 06:55:26;;;;;;;37.28;6.65;;;;;;;;;;5059181;28;20053;-89
2022/09/23 06:57:53;;;;;;;22.40;6.70;;;;;;;;;;5059119;28;20400;-89
2022/09/23 07:00:20;;;;;;;22.15;6.35;;;;;;;;;;5076975;28;20419;-89
2022/09/23 07:02:47;;;;;;;20.05;6.50;;;;;;;;;;5058698;28;20052;-89
2022/09/23 07:05:16;;;;;;;29.60;8.95;;;;;;;;;;5076660;28;20056;-89
2022/09/23 07:07:46;;;;;;;26.85;6.78;;;;;;;;;;5059397;28;20155;-89
2022/09/23 07:10:13;;;;;;;15.05;4.75;;;;;;;;;;5059088;28;20049;-90
2022/09/23 07:12:40;;;;;;;21.88;4.50;;;;;;;;;;5076332;28;20045;-89
2022/09/23 07:15:08;;;;;;;26.83;5.25;;;;;;;;;;5076418;28;20568;-89
2022/09/23 07:17:35;;;;;;;18.38;4.30;;;;;;;;;;5058094;28;20060;-88
2022/09/23 07:20:03;;;;;;;11.35;4.38;;;;;;;;;;5058473;28;20056;-89
2022/09/23 07:22:30;;;;;;;14.57;4.10;;;;;;;;;;5058612;28;20060;-90
2022/09/23 07:24:57;;;;;;;17.67;4.10;;;;;;;;;;5056135;28;20393;-89
2022/09/23 07:27:25;;;;;;;18.60;4.35;;;;;;;;;;5056288;28;20394;-89
2022/09/23 07:29:53;;;;;;;19.33;4.25;;;;;;;;;;5056143;28;20045;-89
2022/09/23 07:32:21;;;;;;;17.25;3.80;;;;;;;;;;5038587;28;20048;-89
2022/09/23 07:34:49;;;;;;;17.35;4.18;;;;;;;;;;5038667;28;20052;-90
2022/09/23 07:37:17;;;;;;;18.65;4.20;;;;;;;;;;5038498;28;20061;-89
2022/09/23 07:39:44;;;;;;;17.13;4.43;;;;;;;;;;5038268;28;20063;-90
2022/09/23 07:42:13;;;;;;;19.98;3.55;;;;;;;;;;5056036;28;20052;-89
2022/09/23 07:44:44;;;;;;;25.25;4.30;;;;;;;;;;5038271;28;20412;-90
2022/09/23 07:47:11;;;;;;;13.82;3.00;;;;;;;;;;5037592;28;20060;-90
2022/09/23 07:49:38;;;;;;;11.70;3.33;;;;;;;;;;5055918;28;20055;-90
2022/09/23 07:52:05;;;;;;;17.40;3.03;;;;;;;;;;5038374;28;20478;-90
2022/09/23 07:54:35;;;;;;;11.20;2.80;;;;;;;;;;5055884;28;20064;-90
2022/09/23 07:57:02;;;;;;;9.77;2.75;;;;;;;;;;5038226;28;20522;-90
2022/09/23 07:59:30;;;;;;;12.43;2.55;;;;;;;;;;5038064;28;20053;-92
2022/09/23 08:01:57;;;;;;;12.27;2.42;;;;;;;;;;5037985;28;20064;-91
2022/09/23 08:04:27;;;;;;;24.30;3.20;;;;;;;;;;5038243;28;20107;-90
2022/09/23 08:06:56;;;;;;;21.15;3.03;;;;;;;;;;5037698;28;20130;-90
2022/09/23 08:09:25;;;;;;;12.35;2.70;;;;;;;;;;5055505;28;20049;-90
2022/09/23 08:11:52;;;;;;;18.02;2.60;;;;;;;;;;5055360;28;20055;-91
2022/09/23 08:14:21;;;;;;;12.73;2.50;;;;;;;;;;5055367;28;20056;-91
2022/09/23 08:16:48;;;;;;;7.47;2.20;;;;;;;;;;5055179;28;20057;-90
2022/09/23 08:19:16;;;;;;;12.35;2.47;;;;;;;;;;5037723;28;20045;-89
2022/09/23 08:21:45;;;;;;;5.68;2.00;;;;;;;;;;5055094;28;20049;-91
2022/09/23 08:24:16;;;;;;;7.25;2.03;;;;;;;;;;5051729;28;20155;-90
2022/09/23 08:26:44;;;;;;;11.20;2.63;;;;;;;;;;5075185;28;20063;-91
2022/09/23 08:29:12;;;;;;;6.82;2.13;;;;;;;;;;5075223;28;20051;-90
2022/09/23 08:31:39;;;;;;;12.60;2.05;;;;;;;;;;5057718;28;20507;-91
2022/09/23 08:34:07;;;;;;;7.85;1.83;;;;;;;;;;5057726;28;20048;-90
2022/09/23 08:36:34;;;;;;;7.07;1.88;;;;;;;;;;5074943;28;20127;-91
2022/09/23 08:39:02;;;;;;;5.60;2.15;;;;;;;;;;5057422;28;20049;-90
2022/09/23 08:41:39;;;;;;;6.75;1.75;;;;;;;;;;5057291;28;20048;-90
2022/09/23 08:44:10;;;;;;;5.50;1.85;;;;;;;;;;5057383;28;20044;-92
2022/09/23 08:46:41;;;;;;;10.20;2.40;;;;;;;;;;5057101;28;20049;-90
2022/09/23 08:49:09;;;;;;;8.13;1.73;;;;;;;;;;5057106;28;20523;-91
2022/09/23 08:51:44;;;;;;;8.80;2.05;;;;;;;;;;5074552;28;20056;-90
2022/09/23 08:54:12;;;;;;;9.40;1.85;;;;;;;;;;5057305;28;20059;-90
2022/09/23 08:56:42;;;;;;;9.43;1.77;;;;;;;;;;5056795;28;20041;-91
2022/09/23 08:59:14;;;;;;;21.42;2.10;;;;;;;;;;5073656;28;20056;-91
2022/09/23 09:01:46;;;;;;;6.68;1.50;;;;;;;;;;5057234;28;20519;-90
2022/09/23 09:04:15;;;;;;;35.45;3.70;;;;;;;;;;5074135;28;20063;-93
2022/09/23 09:06:48;;;;;;;10.63;1.60;;;;;;;;;;5057191;28;20048;-91
2022/09/23 09:09:26;;;;;;;23.92;2.72;;;;;;;;;;5057786;28;20060;-89
2022/09/23 09:11:53;;;;;;;;;;;;;;;;;;5057379;28;20155;-90
2022/09/23 09:14:41;;;;;;;2.97;1.45;;;;;;;;;;5074619;28;19930;-89
2022/09/23 09:17:19;;;;;;;9.32;2.45;;;;;;;;;;5058045;28;20070;-89
2022/09/23 09:19:46;;;;;;;1.70;1.60;;;;;;;;;;5074933;28;20071;-90
2022/09/23 09:22:18;;;;;;;7.13;0.80;;;;;;;;;;5057017;28;20139;-89
2022/09/23 09:24:49;;;;;;;14.95;2.50;;;;;;;;;;5058133;28;20052;-92
2022/09/23 09:27:16;;;;;;;6.60;1.25;;;;;;;;;;5058484;28;20057;-92
2022/09/23 09:29:50;;;;;;;2.67;1.15;;;;;;;;;;5058029;28;20055;-90
2022/09/23 09:32:17;;;;;;;0.77;0.65;;;;;;;;;;5074554;28;20044;-88
2022/09/23 09:34:55;;;;;;;1.42;0.75;;;;;;;;;;5057200;28;20048;-89
2022/09/23 09:37:28;;;;;;;1.92;0.80;;;;;;;;;;5073874;28;20051;-92
2022/09/23 09:39:57;;;;;;;6.35;1.45;;;;;;;;;;5074327;28;20445;-89
2022/09/23 09:42:38;;;;;;;2.83;1.00;;;;;;;;;;5074217;28;20079;-89
2022/09/23 09:45:18;;;;;;;2.25;0.95;;;;;;;;;;5074004;28;20106;-89
2022/09/23 09:48:04;;;;;;;1.13;0.73;;;;;;;;;;5073869;28;20055;-89
2022/09/23 09:51:03;;;;;;;3.15;0.90;;;;;;;;;;5074200;28;20044;-90
2022/09/23 09:53:34;;;;;;;4.70;1.55;;;;;;;;;;5054343;28;20068;-90
2022/09/23 09:56:04;;;;;;;1.23;0.65;;;;;;;;;;5056185;28;20052;-89
2022/09/23 09:58:38;;;;;;;6.68;1.88;;;;;;;;;;5073608;28;20447;-92
2022/09/23 10:01:06;;;;;;;3.45;0.85;;;;;;;;;;5056072;28;20413;-90
2022/09/23 10:03:38;;;;;;;1.02;0.90;;;;;;;;;;5056055;28;20098;-88
2022/09/23 10:06:16;;;;;;;3.05;0.70;;;;;;;;;;5073337;28;20049;-89
2022/09/23 10:08:47;;;;;;;4.28;1.17;;;;;;;;;;5056400;28;20044;-89
2022/09/23 10:11:16;;;;;;;5.40;1.88;;;;;;;;;;5061992;28;20052;-90
2022/09/23 10:14:03;;;;;;;2.42;0.90;;;;;;;;;;5062533;28;20479;-89
2022/09/23 10:16:31;;;;;;;3.70;1.50;;;;;;;;;;5062546;28;20124;-90
2022/09/23 10:19:12;;;;;;;3.08;1.20;;;;;;;;;;5080224;28;20044;-92
2022/09/23 10:21:41;;;;;;;1.08;0.70;;;;;;;;;;5080161;28;20044;-89
2022/09/23 10:24:18;;;;;;;8.73;2.28;;;;;;;;;;5062620;28;20146;-87
2022/09/23 10:26:53;;;;;;;3.90;1.08;;;;;;;;;;5062316;28;20049;-90
2022/09/23 10:29:28;;;;;;;3.20;1.52;;;;;;;;;;5080759;28;20164;-90
2022/09/23 10:32:14;;;;;;;1.30;0.82;;;;;;;;;;5063073;28;20405;-91
2022/09/23 10:34:45;;;;;;;4.35;1.20;;;;;;;;;;5062805;28;20420;-88
2022/09/23 10:37:30;;;;;;;1.48;1.38;;;;;;;;;;5063118;28;20399;-87
2022/09/23 10:48:31;;;;;;;5.68;1.88;;;;;;;;;;5080397;28;20056;-90
2022/09/23 10:50:59;;;;;;;;;;;;;;;;;;5062898;28;20135;-90
2022/09/23 10:53:35;;;;;;;6.85;5.35;;;;;;;;;;5062689;28;19920;-91
2022/09/23 10:56:09;;;;;;;5.10;0.90;;;;;;;;;;5062398;28;20055;-90
2022/09/23 10:58:57;;;;;;;17.05;3.33;;;;;;;;;;5062649;28;20059;-87
2022/09/23 11:01:27;;;;;;;5.57;1.50;;;;;;;;;;5080680;28;20135;-93
2022/09/23 11:04:18;;;;;;;8.05;1.98;;;;;;;;;;5062781;28;20044;-91
2022/09/23 11:07:06;;;;;;;5.38;1.27;;;;;;;;;;5063263;28;20056;-88
2022/09/23 11:09:42;;;;;;;6.00;1.48;;;;;;;;;;5062401;28;20045;-89
2022/09/23 11:12:30;;;;;;;11.07;2.42;;;;;;;;;;5061935;28;20268;-93
2022/09/23 11:14:58;;;;;;;6.47;1.17;;;;;;;;;;5080011;28;20055;-89
2022/09/23 11:17:31;;;;;;;7.97;1.60;;;;;;;;;;5062439;28;20044;-90
2022/09/23 11:20:05;;;;;;;7.00;1.50;;;;;;;;;;5062946;28;20470;-89
2022/09/23 11:22:51;;;;;;;3.08;1.25;;;;;;;;;;5059729;28;20139;-88
2022/09/23 11:25:31;;;;;;;13.70;1.70;;;;;;;;;;5077688;28;20070;-91
2022/09/23 11:28:02;;;;;;;3.67;0.50;;;;;;;;;;5059570;28;20060;-89
2022/09/23 11:30:39;;;;;;;0.98;0.70;;;;;;;;;;5076469;28;20481;-90
2022/09/23 11:33:22;;;;;;;0.88;0.50;;;;;;;;;;5059004;28;20412;-90
2022/09/23 11:35:54;;;;;;;1.02;0.90;;;;;;;;;;5058621;28;20044;-89
2022/09/23 11:38:33;;;;;;;1.35;0.80;;;;;;;;;;5058970;28;20110;-88
2022/09/23 11:41:03;;;;;;;1.10;0.70;;;;;;;;;;5058632;28;20508;-89
2022/09/23 11:43:35;;;;;;;1.77;0.80;;;;;;;;;;5058788;28;20048;-88
2022/09/23 11:46:09;;;;;;;1.63;0.57;;;;;;;;;;5076027;28;20049;-89
2022/09/23 11:48:50;;;;;;;2.50;0.80;;;;;;;;;;5058918;28;20082;-89
2022/09/23 11:51:28;;;;;;;3.92;0.63;;;;;;;;;;5058302;28;20044;-91
2022/09/23 11:54:01;;;;;;;0.52;0.50;;;;;;;;;;5058188;28;20515;-89
2022/09/23 11:56:34;;;;;;;6.20;1.17;;;;;;;;;;5058408;28;20044;-90
2022/09/23 11:59:08;;;;;;;0.68;0.65;;;;;;;;;;5075741;28;20542;-88
2022/09/23 12:01:45;;;;;;;2.38;0.75;;;;;;;;;;5075691;28;20049;-91
2022/09/23 12:04:21;;;;;;;1.42;0.73;;;;;;;;;;5075884;28;20083;-90
2022/09/23 12:06:53;;;;;;;0.68;0.68;;;;;;;;;;5058237;28;20052;-94
2022/09/23 12:09:24;;;;;;;1.67;0.70;;;;;;;;;;5057800;28;20063;-92
2022/09/23 12:12:19;;;;;;;2.38;0.63;;;;;;;;;;5075670;28;20052;-91
2022/09/23 12:15:06;;;;;;;0.90;0.70;;;;;;;;;;5059190;28;20049;-90
2022/09/23 12:17:54;;;;;;;2.45;1.00;;;;;;;;;;5075558;28;20057;-90
2022/09/23 12:20:29;;;;;;;22.75;3.90;;;;;;;;;;5058489;28;20056;-89
2022/09/23 12:23:12;;;;;;;4.50;1.42;;;;;;;;;;5075974;28;20060;-92
2022/09/23 12:25:47;;;;;;;4.43;1.20;;;;;;;;;;5075318;28;20045;-90
2022/09/23 12:28:14;;;;;;;6.32;0.90;;;;;;;;;;5075137;28;20048;-89
2022/09/23 12:30:42;;;;;;;9.38;2.30;;;;;;;;;;5058085;28;20067;-92
2022/09/23 12:33:15;;;;;;;1.13;0.82;;;;;;;;;;5057288;28;20057;-94
2022/09/23 12:35:45;;;;;;;1.75;0.50;;;;;;;;;;5058960;28;20431;-94
2022/09/23 12:38:33;;;;;;;14.18;2.53;;;;;;;;;;5057968;28;20411;-90
2022/09/23 12:41:00;;;;;;;1.67;0.80;;;;;;;;;;5057526;28;20052;-89
2022/09/23 12:43:32;;;;;;;1.88;0.98;;;;;;;;;;5074864;28;20045;-91
2022/09/23 12:46:18;;;;;;;7.88;0.98;;;;;;;;;;5058088;28;20487;-91
2022/09/23 12:48:46;;;;;;;9.65;2.35;;;;;;;;;;5058466;28;20124;-91
2022/09/23 12:51:15;;;;;;;4.35;1.48;;;;;;;;;;5057399;28;20051;-92
2022/09/23 12:53:52;;;;;;;1.30;0.80;;;;;;;;;;5057014;28;20052;-90
2022/09/23 12:56:37;;;;;;;1.50;0.68;;;;;;;;;;5056955;28;20131;-87
2022/09/23 12:59:12;;;;;;;2.47;0.80;;;;;;;;;;5057542;28;20051;-91
2022/09/23 13:01:40;;;;;;;1.88;0.70;;;;;;;;;;5057205;28;20147;-90
2022/09/23 13:07:15;;;;;;;1.80;0.88;;;;;;;;;;5074886;28;20508;-90
2022/09/23 13:09:46;;;;;;;13.00;2.42;;;;;;;;;;5074786;28;20045;-90
2022/09/23 13:12:17;;;;;;;6.70;1.33;;;;;;;;;;5074765;28;20044;-90
2022/09/23 13:14:45;;;;;;;1.85;1.15;;;;;;;;;;5057406;28;20052;-91
2022/09/23 13:17:33;;;;;;;2.65;0.82;;;;;;;;;;5056802;28;20048;-89
2022/09/23 13:20:01;;;;;;;23.15;2.97;;;;;;;;;;5055990;28;20048;-93
2022/09/23 13:22:50;;;;;;;7.10;1.40;;;;;;;;;;5074330;28;20083;-89
2022/09/23 13:25:19;;;;;;;0.68;0.68;;;;;;;;;;5040332;28;20054;-89
2022/09/23 13:27:49;;;;;;;0.88;0.88;;;;;;;;;;5056930;28;20070;-90
2022/09/23 13:30:22;;;;;;;2.80;1.65;;;;;;;;;;5057989;28;20059;-91
2022/09/23 13:33:02;;;;;;;0.60;0.60;;;;;;;;;;5056659;28;20139;-91
2022/09/23 13:35:32;;;;;;;3.30;0.88;;;;;;;;;;5073885;28;20052;-91
2022/09/23 13:38:09;;;;;;;4.68;0.85;;;;;;;;;;5056344;28;20445;-91
2022/09/23 13:40:36;;;;;;;4.10;1.40;;;;;;;;;;5056771;28;20465;-91
2022/09/23 13:43:14;;;;;;;0.73;0.73;;;;;;;;;;5056539;28;20044;-89
2022/09/23 13:45:42;;;;;;;2.88;1.10;;;;;;;;;;5055715;28;20063;-93
2022/09/23 13:48:14;;;;;;;5.97;2.13;;;;;;;;;;5073756;28;20056;-90
2022/09/23 13:50:47;;;;;;;5.18;1.50;;;;;;;;;;5073471;28;20048;-91
2022/09/23 13:53:27;;;;;;;4.97;0.88;;;;;;;;;;5055997;28;20056;-91
2022/09/23 13:56:02;;;;;;;2.88;1.15;;;;;;;;;;5055892;28;20052;-89
2022/09/23 13:58:30;;;;;;;0.80;0.68;;;;;;;;;;5056013;28;20420;-89
2022/09/23 14:00:57;;;;;;;5.50;1.67;;;;;;;;;;5056002;28;20047;-92
2022/09/23 14:03:25;;;;;;;1.67;0.95;;;;;;;;;;5073610;28;20110;-89
2022/09/23 14:05:53;;;;;;;7.57;1.40;;;;;;;;;;5073466;28;20044;-89
2022/09/23 14:08:20;;;;;;;2.65;1.25;;;;;;;;;;5074344;28;20052;-89
2022/09/23 14:10:48;;;;;;;1.58;1.10;;;;;;;;;;5055926;28;20063;-88
2022/09/23 14:13:16;;;;;;;7.93;1.17;;;;;;;;;;5073733;28;20060;-90
2022/09/23 14:15:46;;;;;;;29.60;2.85;;;;;;;;;;5073304;28;20044;-91
2022/09/23 14:18:17;;;;;;;2.45;1.02;;;;;;;;;;5055976;28;20143;-89
2022/09/23 14:20:46;;;;;;;1.02;0.90;;;;;;;;;;5055601;28;20048;-90
2022/09/23 14:23:13;;;;;;;2.25;0.93;;;;;;;;;;5073288;28;20084;-89
2022/09/23 14:25:43;;;;;;;0.93;0.93;;;;;;;;;;5073169;28;20040;-90
2022/09/23 14:28:12;;;;;;;0.90;0.70;;;;;;;;;;5073439;28;20135;-91
2022/09/23 14:30:43;;;;;;;1.67;0.70;;;;;;;;;;5056128;28;20054;-90
2022/09/23 14:33:13;;;;;;;3.08;0.90;;;;;;;;;;5055618;28;20044;-89
2022/09/23 14:35:43;;;;;;;8.20;1.27;;;;;;;;;;5073241;28;20044;-91
2022/09/23 14:41:17;;;;;;;1.73;0.82;;;;;;;;;;5073616;28;20049;-91
2022/09/23 14:43:51;;;;;;;1.48;0.98;;;;;;;;;;5073192;28;20049;-90
2022/09/23 14:46:22;;;;;;;0.95;0.93;;;;;;;;;;5073246;28;20159;-89
2022/09/23 14:48:56;;;;;;;3.35;1.10;;;;;;;;;;5055487;28;20040;-91
2022/09/23 14:51:31;;;;;;;4.03;1.05;;;;;;;;;;5073092;28;20045;-91
2022/09/23 14:54:18;;;;;;;61.05;5.20;;;;;;;;;;5073333;28;20481;-91
2022/09/23 14:56:45;;;;;;;11.65;2.70;;;;;;;;;;5073403;28;20048;-92
2022/09/23 14:59:24;;;;;;;3.03;1.30;;;;;;;;;;5059445;28;20059;-90
2022/09/23 15:01:51;;;;;;;3.47;1.17;;;;;;;;;;5077086;28;20055;-90
2022/09/23 15:04:21;;;;;;;6.45;1.58;;;;;;;;;;5076670;28;20055;-90
2022/09/23 15:06:54;;;;;;;1.23;0.77;;;;;;;;;;5059096;28;20049;-90
2022/09/23 15:09:41;;;;;;;1.02;0.95;;;;;;;;;;5059368;28;20057;-91
2022/09/23 15:12:13;;;;;;;6.88;2.97;;;;;;;;;;5076884;28;20049;-89
2022/09/23 15:14:42;;;;;;;3.17;2.67;;;;;;;;;;5058845;28;20053;-90
2022/09/23 15:17:29;;;;;;;2.40;2.20;;;;;;;;;;5058979;28;20041;-90
2022/09/23 15:20:17;;;;;;;3.20;2.28;;;;;;;;;;5076506;28;20056;-90
2022/09/23 15:22:45;;;;;;;6.20;2.55;;;;;;;;;;5076533;28;20048;-90